createdAt,value
2018-09-04T00:01:08.442Z,0
2018-09-04T00:02:18.342Z,0
2018-09-04T00:03:28.479Z,0
2018-09-04T00:04:38.608Z,0
2018-09-04T00:05:49.763Z,0
2018-09-04T00:07:00.164Z,0
2018-09-04T00:08:10.310Z,0
2018-09-04T00:09:20.197Z,0
2018-09-04T00:10:31.066Z,0
2018-09-04T00:11:41.360Z,0
2018-09-04T00:12:51.715Z,0
2018-09-04T00:14:01.848Z,0
2018-09-04T00:15:12.212Z,0
2018-09-04T00:16:22.345Z,0
2018-09-04T00:17:32.481Z,0
2018-09-04T00:18:42.616Z,0
2018-09-04T00:19:52.816Z,0
2018-09-04T00:21:03.066Z,0
2018-09-04T00:22:13.359Z,0
2018-09-04T00:23:23.697Z,0
2018-09-04T00:24:33.812Z,0
2018-09-04T00:25:43.978Z,0
2018-09-04T00:26:54.394Z,0
2018-09-04T00:28:04.297Z,0
2018-09-04T00:29:14.558Z,0
2018-09-04T00:30:24.844Z,0
2018-09-04T00:31:35.111Z,0
2018-09-04T00:32:45.392Z,0
2018-09-04T00:33:55.538Z,0
2018-09-04T00:35:05.798Z,0
2018-09-04T00:36:15.984Z,0
2018-09-04T00:37:26.105Z,0
2018-09-04T00:38:36.438Z,0
2018-09-04T00:39:46.579Z,0
2018-09-04T00:40:56.740Z,0
2018-09-04T00:42:06.999Z,0
2018-09-04T00:43:16.927Z,0
2018-09-04T00:44:27.049Z,0
2018-09-04T00:45:37.181Z,0
2018-09-04T00:46:47.120Z,0
2018-09-04T00:47:57.258Z,0
2018-09-04T00:49:07.469Z,0
2018-09-04T00:50:17.728Z,0
2018-09-04T00:51:29.908Z,0
2018-09-04T00:52:39.771Z,0
2018-09-04T00:53:49.697Z,0
2018-09-04T00:54:59.839Z,0
2018-09-04T00:56:09.982Z,0
2018-09-04T00:57:20.141Z,0
2018-09-04T00:58:31.251Z,0
2018-09-04T00:59:41.394Z,0
2018-09-04T01:00:51.624Z,0
2018-09-04T01:02:01.772Z,0
2018-09-04T01:03:11.925Z,0
2018-09-04T01:04:21.697Z,0
2018-09-04T01:05:31.828Z,0
2018-09-04T01:06:41.983Z,0
2018-09-04T01:07:52.098Z,0
2018-09-04T01:09:02.265Z,0
2018-09-04T01:10:12.384Z,0
2018-09-04T01:11:22.579Z,0
2018-09-04T01:12:32.676Z,0
2018-09-04T01:13:42.534Z,0
2018-09-04T01:14:52.784Z,0
2018-09-04T01:16:02.946Z,0
2018-09-04T01:17:13.126Z,0
2018-09-04T01:18:23.331Z,0
2018-09-04T01:19:33.485Z,0
2018-09-04T01:20:43.605Z,0
2018-09-04T01:21:53.738Z,0
2018-09-04T01:23:03.495Z,0
2018-09-04T01:24:14.620Z,0
2018-09-04T01:25:24.775Z,0
2018-09-04T01:26:34.932Z,0
2018-09-04T01:27:45.292Z,0
2018-09-04T01:28:55.417Z,0
2018-09-04T01:30:05.541Z,0
2018-09-04T01:31:15.682Z,0
2018-09-04T01:32:25.556Z,0
2018-09-04T01:33:35.551Z,0
2018-09-04T01:34:45.456Z,0
2018-09-04T01:35:55.611Z,0
2018-09-04T01:37:05.551Z,0
2018-09-04T01:38:15.585Z,0
2018-09-04T01:39:25.748Z,0
2018-09-04T01:40:35.612Z,0
2018-09-04T01:41:45.736Z,0
2018-09-04T01:42:55.851Z,0
2018-09-04T01:44:05.866Z,0
2018-09-04T01:45:16.013Z,0
2018-09-04T01:46:25.922Z,0
2018-09-04T01:47:35.784Z,0
2018-09-04T01:48:45.907Z,0
2018-09-04T01:49:55.785Z,0
2018-09-04T01:51:05.898Z,0
2018-09-04T01:52:16.082Z,0
2018-09-04T01:53:26.245Z,0
2018-09-04T01:54:36.377Z,0
2018-09-04T01:55:46.559Z,0
2018-09-04T01:56:56.706Z,0
2018-09-04T01:58:06.858Z,0
2018-09-04T01:59:16.726Z,0
2018-09-04T02:00:27.087Z,0
2018-09-04T02:01:37.492Z,0
2018-09-04T02:02:47.617Z,0
2018-09-04T02:03:57.522Z,0
2018-09-04T02:05:07.665Z,0
2018-09-04T02:06:17.975Z,0
2018-09-04T02:07:28.866Z,0
2018-09-04T02:08:39.011Z,0
2018-09-04T02:09:49.292Z,0
2018-09-04T02:10:59.871Z,0
2018-09-04T02:12:09.379Z,0
2018-09-04T02:13:20.513Z,0
2018-09-04T02:14:30.691Z,0
2018-09-04T02:15:40.896Z,0
2018-09-04T02:16:51.070Z,0
2018-09-04T02:18:01.240Z,0
2018-09-04T02:19:11.371Z,0
2018-09-04T02:20:21.498Z,0
2018-09-04T02:21:31.637Z,0
2018-09-04T02:22:41.754Z,0
2018-09-04T02:23:51.588Z,0
2018-09-04T02:25:01.882Z,0
2018-09-04T02:26:12.042Z,0
2018-09-04T02:27:22.204Z,0
2018-09-04T02:28:32.460Z,0
2018-09-04T02:29:42.601Z,0
2018-09-04T02:30:52.787Z,0
2018-09-04T02:32:02.964Z,0
2018-09-04T02:33:13.703Z,0
2018-09-04T02:34:24.013Z,0
2018-09-04T02:35:34.242Z,0
2018-09-04T02:36:44.123Z,0
2018-09-04T02:37:54.264Z,0
2018-09-04T02:39:04.388Z,0
2018-09-04T02:40:14.570Z,0
2018-09-04T02:41:24.793Z,0
2018-09-04T02:42:34.967Z,0
2018-09-04T02:43:45.415Z,0
2018-09-04T02:44:55.555Z,0
2018-09-04T02:46:05.562Z,0
2018-09-04T02:47:15.732Z,0
2018-09-04T02:48:25.850Z,0
2018-09-04T02:49:35.981Z,0
2018-09-04T02:50:46.195Z,0
2018-09-04T02:51:57.299Z,0
2018-09-04T02:53:07.533Z,0
2018-09-04T02:54:17.657Z,0
2018-09-04T02:55:28.763Z,0
2018-09-04T02:56:38.889Z,0
2018-09-04T02:57:49.010Z,0
2018-09-04T02:58:58.870Z,0
2018-09-04T03:00:09.018Z,0
2018-09-04T03:01:19.331Z,0
2018-09-04T03:02:29.480Z,0
2018-09-04T03:03:39.621Z,0
2018-09-04T03:04:49.491Z,0
2018-09-04T03:05:59.369Z,0
2018-09-04T03:07:09.578Z,0
2018-09-04T03:08:19.708Z,0
2018-09-04T03:09:29.851Z,0
2018-09-04T03:10:39.997Z,0
2018-09-04T03:11:50.272Z,0
2018-09-04T03:13:00.130Z,0
2018-09-04T03:14:10.138Z,0
2018-09-04T03:15:20.297Z,0
2018-09-04T03:16:30.503Z,0
2018-09-04T03:17:40.750Z,0
2018-09-04T03:18:50.889Z,0
2018-09-04T03:20:01.179Z,0
2018-09-04T03:21:11.140Z,0
2018-09-04T03:22:21.255Z,0
2018-09-04T03:23:31.414Z,0
2018-09-04T03:24:41.547Z,0
2018-09-04T03:25:51.438Z,0
2018-09-04T03:27:01.605Z,0
2018-09-04T03:28:11.818Z,0
2018-09-04T03:29:22.009Z,0
2018-09-04T03:30:32.279Z,0
2018-09-04T03:31:42.156Z,0
2018-09-04T03:32:52.283Z,0
2018-09-04T03:34:02.412Z,0
2018-09-04T03:35:12.784Z,0
2018-09-04T03:36:22.944Z,0
2018-09-04T03:37:33.061Z,0
2018-09-04T03:38:43.214Z,0
2018-09-04T03:39:53.002Z,0
2018-09-04T03:41:03.371Z,0
2018-09-04T03:42:13.614Z,0
2018-09-04T03:43:23.822Z,0
2018-09-04T03:44:34.573Z,0
2018-09-04T03:45:44.815Z,0
2018-09-04T03:46:55.150Z,0
2018-09-04T03:48:05.987Z,0
2018-09-04T03:49:16.185Z,0
2018-09-04T03:50:26.313Z,0
2018-09-04T03:51:36.340Z,0
2018-09-04T03:52:46.507Z,0
2018-09-04T03:53:56.674Z,0
2018-09-04T03:55:07.059Z,0
2018-09-04T03:56:17.217Z,0
2018-09-04T03:57:27.572Z,0
2018-09-04T03:58:37.715Z,0
2018-09-04T03:59:48.451Z,0
2018-09-04T04:00:58.586Z,0
2018-09-04T04:02:08.808Z,0
2018-09-04T04:03:19.168Z,0
2018-09-04T04:04:29.318Z,0
2018-09-04T04:05:39.439Z,0
2018-09-04T04:06:49.568Z,0
2018-09-04T04:07:59.706Z,0
2018-09-04T04:09:09.832Z,0
2018-09-04T04:10:19.990Z,0
2018-09-04T04:11:30.117Z,0
2018-09-04T04:12:39.990Z,0
2018-09-04T04:13:50.144Z,0
2018-09-04T04:15:00.261Z,0
2018-09-04T04:16:10.387Z,0
2018-09-04T04:17:20.555Z,0
2018-09-04T04:18:30.712Z,0
2018-09-04T04:19:40.965Z,0
2018-09-04T04:20:51.264Z,0
2018-09-04T04:22:01.420Z,0
2018-09-04T04:23:11.408Z,0
2018-09-04T04:24:20.995Z,0
2018-09-04T04:25:31.124Z,0
2018-09-04T04:26:41.382Z,5
2018-09-04T04:27:51.751Z,5
2018-09-04T04:29:01.893Z,5
2018-09-04T04:30:12.076Z,5
2018-09-04T04:31:22.247Z,5
2018-09-04T04:32:32.376Z,5
2018-09-04T04:33:42.542Z,5
2018-09-04T04:34:52.903Z,10
2018-09-04T04:36:03.130Z,10
2018-09-04T04:37:13.112Z,10
2018-09-04T04:38:23.227Z,10
2018-09-04T04:39:33.384Z,10
2018-09-04T04:40:43.553Z,15
2018-09-04T04:41:53.778Z,15
2018-09-04T04:43:03.724Z,15
2018-09-04T04:44:13.506Z,15
2018-09-04T04:45:23.397Z,20
2018-09-04T04:46:33.552Z,20
2018-09-04T04:47:43.458Z,20
2018-09-04T04:48:53.713Z,20
2018-09-04T04:50:04.068Z,25
2018-09-04T04:51:13.851Z,25
2018-09-04T04:52:23.979Z,25
2018-09-04T04:53:34.555Z,25
2018-09-04T04:54:44.774Z,30
2018-09-04T04:55:54.651Z,30
2018-09-04T04:57:04.514Z,30
2018-09-04T04:58:14.478Z,35
2018-09-04T04:59:24.693Z,35
2018-09-04T05:00:35.858Z,35
2018-09-04T05:01:46.041Z,35
2018-09-04T05:02:56.428Z,40
2018-09-04T05:04:06.741Z,40
2018-09-04T05:05:16.951Z,40
2018-09-04T05:06:27.126Z,40
2018-09-04T05:07:37.277Z,40
2018-09-04T05:08:47.058Z,40
2018-09-04T05:09:57.465Z,45
2018-09-04T05:11:08.203Z,50
2018-09-04T05:12:18.484Z,50
2018-09-04T05:13:28.418Z,50
2018-09-04T05:14:38.591Z,50
2018-09-04T05:15:48.867Z,50
2018-09-04T05:16:59.048Z,50
2018-09-04T05:18:09.188Z,55
2018-09-04T05:19:19.416Z,55
2018-09-04T05:20:29.605Z,55
2018-09-04T05:21:39.758Z,60
2018-09-04T05:22:50.265Z,60
2018-09-04T05:24:00.489Z,60
2018-09-04T05:25:10.668Z,65
2018-09-04T05:26:20.859Z,65
2018-09-04T05:27:31.067Z,65
2018-09-04T05:28:41.268Z,70
2018-09-04T05:29:51.480Z,70
2018-09-04T05:31:01.257Z,75
2018-09-04T05:32:11.398Z,75
2018-09-04T05:33:21.526Z,80
2018-09-04T05:34:31.702Z,80
2018-09-04T05:35:41.827Z,85
2018-09-04T05:36:52.170Z,85
2018-09-04T05:38:02.368Z,85
2018-09-04T05:39:12.467Z,90
2018-09-04T05:40:22.609Z,90
2018-09-04T05:41:32.770Z,90
2018-09-04T05:42:42.975Z,90
2018-09-04T05:43:52.865Z,95
2018-09-04T05:45:02.952Z,90
2018-09-04T05:46:13.152Z,95
2018-09-04T05:47:23.346Z,100
2018-09-04T05:48:33.541Z,100
2018-09-04T05:49:43.734Z,100
2018-09-04T05:50:54.108Z,100
2018-09-04T05:52:04.252Z,105
2018-09-04T05:53:14.553Z,105
2018-09-04T05:54:24.958Z,110
2018-09-04T05:55:34.788Z,110
2018-09-04T05:56:45.094Z,105
2018-09-04T05:57:54.974Z,110
2018-09-04T05:59:05.125Z,110
2018-09-04T06:00:15.260Z,110
2018-09-04T06:01:25.398Z,110
2018-09-04T06:02:35.343Z,110
2018-09-04T06:03:45.478Z,115
2018-09-04T06:04:55.649Z,115
2018-09-04T06:06:05.550Z,115
2018-09-04T06:07:15.743Z,120
2018-09-04T06:08:25.875Z,125
2018-09-04T06:09:35.765Z,130
2018-09-04T06:10:45.892Z,135
2018-09-04T06:11:56.098Z,145
2018-09-04T06:13:06.351Z,150
2018-09-04T06:14:16.582Z,155
2018-09-04T06:15:26.778Z,145
2018-09-04T06:16:36.948Z,160
2018-09-04T06:17:46.832Z,165
2018-09-04T06:18:57.019Z,165
2018-09-04T06:20:07.398Z,165
2018-09-04T06:21:17.333Z,175
2018-09-04T06:22:27.462Z,175
2018-09-04T06:23:37.759Z,175
2018-09-04T06:24:47.923Z,175
2018-09-04T06:25:59.122Z,170
2018-09-04T06:27:08.989Z,175
2018-09-04T06:28:19.121Z,170
2018-09-04T06:29:29.619Z,175
2018-09-04T06:30:39.577Z,175
2018-09-04T06:31:49.265Z,180
2018-09-04T06:32:59.723Z,175
2018-09-04T06:34:10.428Z,175
2018-09-04T06:35:20.705Z,175
2018-09-04T06:36:31.267Z,180
2018-09-04T06:37:41.400Z,180
2018-09-04T06:38:51.594Z,180
2018-09-04T06:40:01.762Z,180
2018-09-04T06:41:11.990Z,185
2018-09-04T06:42:22.277Z,185
2018-09-04T06:43:32.405Z,185
2018-09-04T06:44:42.562Z,185
2018-09-04T06:45:52.694Z,190
2018-09-04T06:47:02.568Z,190
2018-09-04T06:48:12.732Z,190
2018-09-04T06:49:22.867Z,195
2018-09-04T06:50:33.008Z,195
2018-09-04T06:51:43.332Z,195
2018-09-04T06:52:53.484Z,195
2018-09-04T06:54:03.281Z,200
2018-09-04T06:55:13.611Z,195
2018-09-04T06:56:23.756Z,200
2018-09-04T06:57:34.848Z,200
2018-09-04T06:58:44.726Z,205
2018-09-04T06:59:55.210Z,205
2018-09-04T07:01:05.466Z,205
2018-09-04T07:02:15.599Z,210
2018-09-04T07:03:25.803Z,215
2018-09-04T07:04:36.059Z,215
2018-09-04T07:05:46.024Z,215
2018-09-04T07:06:55.941Z,220
2018-09-04T07:08:05.858Z,225
2018-09-04T07:09:16.214Z,240
2018-09-04T07:10:25.992Z,230
2018-09-04T07:11:36.178Z,235
2018-09-04T07:12:46.307Z,250
2018-09-04T07:13:56.465Z,240
2018-09-04T07:15:07.084Z,245
2018-09-04T07:16:16.947Z,255
2018-09-04T07:17:27.126Z,245
2018-09-04T07:18:36.902Z,250
2018-09-04T07:19:47.176Z,250
2018-09-04T07:20:57.323Z,255
2018-09-04T07:22:07.198Z,270
2018-09-04T07:23:17.330Z,285
2018-09-04T07:24:28.042Z,280
2018-09-04T07:25:37.977Z,290
2018-09-04T07:26:48.092Z,280
2018-09-04T07:27:58.314Z,290
2018-09-04T07:29:08.701Z,310
2018-09-04T07:30:19.056Z,315
2018-09-04T07:31:29.194Z,310
2018-09-04T07:32:39.424Z,310
2018-09-04T07:33:49.667Z,310
2018-09-04T07:34:59.589Z,310
2018-09-04T07:36:09.527Z,310
2018-09-04T07:37:19.696Z,320
2018-09-04T07:38:30.194Z,305
2018-09-04T07:39:40.371Z,300
2018-09-04T07:40:50.526Z,300
2018-09-04T07:42:01.062Z,305
2018-09-04T07:43:11.151Z,300
2018-09-04T07:44:21.284Z,300
2018-09-04T07:45:31.652Z,295
2018-09-04T07:46:41.804Z,300
2018-09-04T07:47:51.705Z,305
2018-09-04T07:49:02.658Z,305
2018-09-04T07:50:12.832Z,310
2018-09-04T07:51:23.058Z,310
2018-09-04T07:52:33.245Z,310
2018-09-04T07:53:43.687Z,315
2018-09-04T07:54:53.832Z,320
2018-09-04T07:56:03.613Z,315
2018-09-04T07:57:13.539Z,315
2018-09-04T07:58:23.714Z,315
2018-09-04T07:59:34.149Z,315
2018-09-04T08:00:44.301Z,315
2018-09-04T08:01:54.191Z,315
2018-09-04T08:03:04.313Z,305
2018-09-04T08:04:14.492Z,305
2018-09-04T08:05:24.725Z,310
2018-09-04T08:06:34.871Z,310
2018-09-04T08:07:44.791Z,310
2018-09-04T08:08:54.962Z,315
2018-09-04T08:10:05.332Z,315
2018-09-04T08:11:14.959Z,305
2018-09-04T08:12:25.196Z,315
2018-09-04T08:13:35.324Z,315
2018-09-04T08:14:45.455Z,320
2018-09-04T08:15:55.658Z,325
2018-09-04T08:17:05.524Z,330
2018-09-04T08:18:15.681Z,335
2018-09-04T08:19:25.861Z,340
2018-09-04T08:20:36.570Z,355
2018-09-04T08:21:46.969Z,355
2018-09-04T08:22:57.132Z,360
2018-09-04T08:24:07.319Z,365
2018-09-04T08:25:17.491Z,370
2018-09-04T08:26:27.717Z,375
2018-09-04T08:27:37.942Z,400
2018-09-04T08:28:48.067Z,400
2018-09-04T08:29:58.240Z,420
2018-09-04T08:31:08.369Z,535
2018-09-04T08:32:18.498Z,840
2018-09-04T08:33:28.731Z,1010
2018-09-04T08:34:38.865Z,1040
2018-09-04T08:35:49.005Z,1095
2018-09-04T08:36:58.885Z,1120
2018-09-04T08:38:08.767Z,1180
2018-09-04T08:39:18.915Z,1195
2018-09-04T08:40:29.070Z,1215
2018-09-04T08:41:39.248Z,1190
2018-09-04T08:42:49.450Z,1230
2018-09-04T08:43:59.359Z,1240
2018-09-04T08:45:09.528Z,1295
2018-09-04T08:46:19.986Z,1330
2018-09-04T08:47:30.573Z,1345
2018-09-04T08:48:40.395Z,1340
2018-09-04T08:49:50.856Z,1345
2018-09-04T08:51:00.744Z,1360
2018-09-04T08:52:10.929Z,1350
2018-09-04T08:53:21.348Z,1360
2018-09-04T08:54:33.103Z,1360
2018-09-04T08:55:43.288Z,1375
2018-09-04T08:56:53.478Z,1395
2018-09-04T08:58:03.709Z,1410
2018-09-04T08:59:13.938Z,1450
2018-09-04T09:00:23.879Z,1495
2018-09-04T09:01:34.016Z,1510
2018-09-04T09:02:44.358Z,1495
2018-09-04T09:03:54.953Z,1500
2018-09-04T09:05:04.943Z,1505
2018-09-04T09:06:15.131Z,1525
2018-09-04T09:07:25.561Z,1535
2018-09-04T09:08:35.808Z,1520
2018-09-04T09:09:46.073Z,1495
2018-09-04T09:10:58.250Z,1465
2018-09-04T09:12:12.359Z,1475
2018-09-04T09:13:22.489Z,1515
2018-09-04T09:14:32.892Z,1535
2018-09-04T09:15:43.251Z,1540
2018-09-04T09:16:53.944Z,1555
2018-09-04T09:18:14.659Z,1605
2018-09-04T09:19:29.203Z,1645
2018-09-04T09:20:40.080Z,1645
2018-09-04T09:21:50.243Z,1640
2018-09-04T09:23:00.953Z,1680
2018-09-04T09:24:11.160Z,1690
2018-09-04T09:25:21.538Z,1745
2018-09-04T09:26:32.273Z,1745
2018-09-04T09:27:42.718Z,1765
2018-09-04T09:28:54.092Z,1790
2018-09-04T09:30:04.239Z,1795
2018-09-04T09:31:14.619Z,1770
2018-09-04T09:32:28.998Z,1735
2018-09-04T09:33:39.250Z,1790
2018-09-04T09:34:50.008Z,1850
2018-09-04T09:36:00.292Z,1825
2018-09-04T09:39:43.615Z,1740
2018-09-04T09:40:59.796Z,1760
2018-09-04T09:43:33.633Z,1730
2018-09-04T09:44:43.569Z,1850
2018-09-04T09:45:54.705Z,1750
2018-09-04T09:48:16.388Z,1935
2018-09-04T09:49:26.663Z,1965
2018-09-04T09:50:37.008Z,2015
2018-09-04T09:51:46.916Z,1985
2018-09-04T09:52:57.785Z,1995
2018-09-04T09:54:09.327Z,2005
2018-09-04T09:55:24.546Z,2020
2018-09-04T09:56:35.364Z,2085
2018-09-04T09:57:45.662Z,2015
2018-09-04T09:58:57.037Z,2015
2018-09-04T10:00:07.576Z,1995
2018-09-04T10:01:17.776Z,2020
2018-09-04T10:02:27.943Z,1965
2018-09-04T10:03:55.745Z,1830
2018-09-04T10:05:05.975Z,1735
2018-09-04T10:06:16.198Z,1420
2018-09-04T10:07:26.468Z,1445
2018-09-04T10:08:36.776Z,1480
2018-09-04T10:09:47.179Z,1640
2018-09-04T10:10:57.458Z,1635
2018-09-04T10:12:07.681Z,1915
2018-09-04T10:13:17.847Z,2025
2018-09-04T10:14:28.031Z,2070
2018-09-04T10:15:38.214Z,2055
2018-09-04T10:16:48.564Z,1985
2018-09-04T10:17:58.736Z,1980
2018-09-04T10:19:08.908Z,1855
2018-09-04T10:20:19.088Z,1670
2018-09-04T10:21:29.734Z,1615
2018-09-04T10:22:39.916Z,1340
2018-09-04T10:23:50.050Z,1085
2018-09-04T10:25:00.098Z,870
2018-09-04T10:26:10.568Z,860
2018-09-04T10:27:20.773Z,910
2018-09-04T10:28:30.947Z,970
2018-09-04T10:29:41.092Z,1045
2018-09-04T10:30:50.933Z,1225
2018-09-04T10:32:01.119Z,1300
2018-09-04T10:33:11.262Z,1250
2018-09-04T10:34:21.488Z,1305
2018-09-04T10:35:31.717Z,1405
2018-09-04T10:36:41.687Z,1500
2018-09-04T10:37:51.626Z,1710
2018-09-04T10:39:01.797Z,1785
2018-09-04T10:40:12.162Z,850
2018-09-04T10:41:22.373Z,785
2018-09-04T10:42:32.614Z,2035
2018-09-04T10:43:42.757Z,2280
2018-09-04T10:44:52.650Z,2125
2018-09-04T10:46:02.823Z,2005
2018-09-04T10:47:12.858Z,2105
2018-09-04T10:48:23.163Z,1920
2018-09-04T10:49:33.080Z,1990
2018-09-04T10:50:43.453Z,1565
2018-09-04T10:51:53.739Z,2250
2018-09-04T10:53:03.976Z,2330
2018-09-04T10:54:14.242Z,2230
2018-09-04T10:55:24.458Z,2000
2018-09-04T10:56:34.949Z,1945
2018-09-04T10:57:45.592Z,2060
2018-09-04T10:58:55.405Z,1980
2018-09-04T11:00:05.856Z,1910
2018-09-04T11:01:16.031Z,1110
2018-09-04T11:02:26.893Z,2185
2018-09-04T11:03:36.927Z,2470
2018-09-04T11:04:47.218Z,2475
2018-09-04T11:05:57.795Z,2445
2018-09-04T11:07:08.956Z,2325
2018-09-04T11:08:19.114Z,2045
2018-09-04T11:09:29.802Z,1950
2018-09-04T11:10:39.847Z,2035
2018-09-04T11:11:50.079Z,1820
2018-09-04T11:13:04.688Z,1585
2018-09-04T11:14:14.865Z,1525
2018-09-04T11:15:25.152Z,1695
2018-09-04T11:16:35.355Z,1330
2018-09-04T11:17:45.638Z,1015
2018-09-04T11:18:55.747Z,825
2018-09-04T11:20:05.977Z,740
2018-09-04T11:21:16.167Z,605
2018-09-04T11:22:26.393Z,565
2018-09-04T11:23:37.759Z,580
2018-09-04T11:24:48.718Z,575
2018-09-04T11:25:59.095Z,585
2018-09-04T11:27:09.351Z,600
2018-09-04T11:28:19.543Z,620
2018-09-04T11:29:29.774Z,645
2018-09-04T11:30:40.198Z,675
2018-09-04T11:31:49.744Z,685
2018-09-04T11:32:59.932Z,660
2018-09-04T11:34:10.132Z,560
2018-09-04T11:35:20.291Z,505
2018-09-04T11:36:31.491Z,545
2018-09-04T11:37:41.650Z,595
2018-09-04T11:38:51.895Z,735
2018-09-04T11:40:01.531Z,770
2018-09-04T11:41:11.911Z,815
2018-09-04T11:42:22.066Z,920
2018-09-04T11:43:31.978Z,1055
2018-09-04T11:44:42.177Z,1090
2018-09-04T11:45:52.581Z,1300
2018-09-04T11:47:03.487Z,1380
2018-09-04T11:48:13.764Z,1590
2018-09-04T11:49:23.990Z,1125
2018-09-04T11:50:33.901Z,825
2018-09-04T11:51:43.909Z,1530
2018-09-04T11:52:54.120Z,1710
2018-09-04T11:54:04.284Z,1700
2018-09-04T11:55:14.495Z,1760
2018-09-04T11:56:24.757Z,1750
2018-09-04T11:57:35.045Z,1770
2018-09-04T11:58:45.319Z,1800
2018-09-04T11:59:55.654Z,1895
2018-09-04T12:01:05.836Z,1960
2018-09-04T12:02:16.485Z,1890
2018-09-04T12:03:26.746Z,1940
2018-09-04T12:04:36.390Z,1780
2018-09-04T12:05:46.719Z,1520
2018-09-04T12:06:57.038Z,1250
2018-09-04T12:08:09.664Z,1265
2018-09-04T12:09:23.130Z,1220
2018-09-04T12:10:33.578Z,975
2018-09-04T12:11:43.792Z,1275
2018-09-04T12:12:54.735Z,1210
2018-09-04T12:14:05.037Z,1170
2018-09-04T12:15:15.253Z,865
2018-09-04T12:16:25.525Z,640
2018-09-04T12:17:35.723Z,645
2018-09-04T12:18:45.396Z,810
2018-09-04T12:19:55.684Z,1195
2018-09-04T12:21:07.066Z,1090
2018-09-04T12:22:17.607Z,1535
2018-09-04T12:23:27.517Z,1465
2018-09-04T12:24:37.417Z,1945
2018-09-04T12:25:47.660Z,1870
2018-09-04T12:26:57.920Z,1445
2018-09-04T12:28:07.830Z,985
2018-09-04T12:29:17.971Z,835
2018-09-04T12:30:27.629Z,820
2018-09-04T12:31:37.819Z,1330
2018-09-04T12:32:47.982Z,780
2018-09-04T12:33:59.244Z,1565
2018-09-04T12:35:09.483Z,1680
2018-09-04T12:36:19.684Z,1480
2018-09-04T12:37:29.901Z,1435
2018-09-04T12:38:40.297Z,1440
2018-09-04T12:39:50.344Z,1710
2018-09-04T12:41:00.164Z,1950
2018-09-04T12:42:10.058Z,1920
2018-09-04T12:43:19.866Z,1950
2018-09-04T12:44:30.719Z,1555
2018-09-04T12:45:40.962Z,1545
2018-09-04T12:48:04.211Z,1090
2018-09-04T12:49:17.904Z,1235
2018-09-04T12:54:10.563Z,1930
2018-09-04T12:55:20.498Z,2000
2018-09-04T12:56:30.684Z,1985
2018-09-04T12:57:40.835Z,1820
2018-09-04T13:00:07.251Z,1185
2018-09-04T13:01:17.134Z,1050
2018-09-04T13:02:27.470Z,1025
2018-09-04T13:03:37.773Z,780
2018-09-04T13:04:48.004Z,735
2018-09-04T13:05:57.934Z,1245
2018-09-04T13:07:08.190Z,1830
2018-09-04T13:08:18.615Z,1825
2018-09-04T13:09:28.785Z,1710
2018-09-04T13:10:38.953Z,1360
2018-09-04T13:11:49.224Z,1020
2018-09-04T13:12:59.247Z,685
2018-09-04T13:14:10.225Z,565
2018-09-04T13:15:20.416Z,520
2018-09-04T13:16:32.070Z,475
2018-09-04T13:17:42.303Z,450
2018-09-04T13:18:52.398Z,425
2018-09-04T13:20:02.566Z,405
2018-09-04T13:21:14.922Z,390
2018-09-04T13:22:26.014Z,375
2018-09-04T13:23:36.351Z,365
2018-09-04T13:24:46.611Z,360
2018-09-04T13:25:56.824Z,350
2018-09-04T13:27:08.040Z,345
2018-09-04T13:28:18.261Z,335
2018-09-04T13:29:30.450Z,330
2018-09-04T13:30:40.646Z,330
2018-09-04T13:31:50.522Z,345
2018-09-04T13:33:00.690Z,425
2018-09-04T13:34:11.212Z,395
2018-09-04T13:35:22.516Z,600
2018-09-04T13:36:32.912Z,615
2018-09-04T13:38:57.124Z,595
2018-09-04T13:40:07.331Z,605
2018-09-04T13:41:17.580Z,530
2018-09-04T13:42:27.808Z,500
2018-09-04T13:43:38.051Z,470
2018-09-04T13:44:48.192Z,465
2018-09-04T13:45:58.416Z,475
2018-09-04T13:47:09.930Z,505
2018-09-04T13:48:19.840Z,695
2018-09-04T13:49:31.103Z,1180
2018-09-04T13:50:41.398Z,1500
2018-09-04T13:51:51.603Z,1545
2018-09-04T13:53:01.773Z,1365
2018-09-04T13:54:11.950Z,1330
2018-09-04T13:55:22.147Z,1380
2018-09-04T13:56:32.330Z,1415
2018-09-04T13:57:42.542Z,1460
2018-09-04T13:58:52.727Z,1375
2018-09-04T14:00:02.934Z,1250
2018-09-04T14:01:13.316Z,1115
2018-09-04T14:02:23.601Z,965
2018-09-04T14:03:36.389Z,820
2018-09-04T14:04:46.553Z,650
2018-09-04T14:05:56.760Z,550
2018-09-04T14:07:07.162Z,515
2018-09-04T14:08:17.478Z,520
2018-09-04T14:09:27.453Z,535
2018-09-04T14:10:37.400Z,545
2018-09-04T14:11:47.589Z,570
2018-09-04T14:12:57.740Z,640
2018-09-04T14:14:07.919Z,830
2018-09-04T14:15:17.887Z,880
2018-09-04T14:16:28.240Z,860
2018-09-04T14:17:38.394Z,785
2018-09-04T14:18:48.788Z,810
2018-09-04T14:19:58.741Z,655
2018-09-04T14:21:09.410Z,675
2018-09-04T14:22:19.597Z,685
2018-09-04T14:23:29.809Z,610
2018-09-04T14:24:40.223Z,575
2018-09-04T14:25:50.022Z,605
2018-09-04T14:27:00.238Z,630
2018-09-04T14:28:10.440Z,655
